createdAt,value
2022-11-25T00:01:07.394Z,3.00
2022-11-25T00:03:35.151Z,2.20
2022-11-25T00:06:10.634Z,2.72
2022-11-25T00:08:37.489Z,2.05
2022-11-25T00:11:04.826Z,2.72
2022-11-25T00:13:31.426Z,2.63
2022-11-25T00:16:01.042Z,2.42
2022-11-25T00:18:27.322Z,2.42
2022-11-25T00:20:53.595Z,3.15
2022-11-25T00:23:19.977Z,2.83
2022-11-25T00:25:46.246Z,2.60
2022-11-25T00:28:12.533Z,2.72
2022-11-25T00:30:38.958Z,2.33
2022-11-25T00:33:05.323Z,2.53
2022-11-25T00:35:31.698Z,2.88
2022-11-25T00:37:57.965Z,2.92
2022-11-25T00:40:24.258Z,2.30
2022-11-25T00:43:09.004Z,2.25
2022-11-25T00:45:35.343Z,2.53
2022-11-25T00:48:01.764Z,2.42
2022-11-25T00:50:28.092Z,2.72
2022-11-25T00:52:54.402Z,2.08
2022-11-25T00:55:20.685Z,2.15
2022-11-25T00:57:47.006Z,2.28
2022-11-25T01:00:13.549Z,1.80
2022-11-25T01:02:39.908Z,2.53
2022-11-25T01:05:06.408Z,2.03
2022-11-25T01:07:32.852Z,1.75
2022-11-25T01:09:59.190Z,2.38
2022-11-25T01:12:25.473Z,2.45
2022-11-25T01:14:51.810Z,1.80
2022-11-25T01:17:18.151Z,2.50
2022-11-25T01:19:44.573Z,2.10
2022-11-25T01:22:10.930Z,2.17
2022-11-25T01:24:37.569Z,2.33
2022-11-25T01:27:04.046Z,2.13
2022-11-25T01:29:30.458Z,2.08
2022-11-25T01:31:57.614Z,2.05
2022-11-25T01:34:25.719Z,2.10
2022-11-25T01:36:52.069Z,2.00
2022-11-25T01:39:25.632Z,1.67
2022-11-25T01:41:56.650Z,1.67
2022-11-25T01:44:25.727Z,2.58
2022-11-25T01:46:56.865Z,2.00
2022-11-25T01:49:31.898Z,1.90
2022-11-25T01:52:11.348Z,2.28
2022-11-25T01:54:44.215Z,2.55
2022-11-25T01:57:23.152Z,1.80
2022-11-25T01:59:50.621Z,1.98
2022-11-25T02:02:17.843Z,1.60
2022-11-25T02:04:44.785Z,1.75
2022-11-25T02:07:16.090Z,2.10
2022-11-25T02:09:43.581Z,1.75
2022-11-25T02:12:10.332Z,1.90
2022-11-25T02:14:36.957Z,1.75
2022-11-25T02:17:03.420Z,1.45
2022-11-25T02:19:38.473Z,1.42
2022-11-25T02:22:06.684Z,1.50
2022-11-25T02:24:41.551Z,1.27
2022-11-25T02:27:08.009Z,1.40
2022-11-25T02:29:34.850Z,1.30
2022-11-25T02:32:01.278Z,2.05
2022-11-25T02:34:27.669Z,1.48
2022-11-25T02:36:54.156Z,1.55
2022-11-25T02:39:21.336Z,1.98
2022-11-25T02:41:53.546Z,1.75
2022-11-25T02:44:20.420Z,1.45
2022-11-25T02:46:46.776Z,1.30
2022-11-25T02:49:13.160Z,1.50
2022-11-25T02:51:40.612Z,1.58
2022-11-25T02:54:07.188Z,1.52
2022-11-25T02:56:34.489Z,1.05
2022-11-25T02:59:01.310Z,1.25
2022-11-25T03:01:28.093Z,1.30
2022-11-25T03:03:54.484Z,1.00
2022-11-25T03:06:20.834Z,0.93
2022-11-25T03:08:47.330Z,1.38
2022-11-25T03:11:13.942Z,1.17
2022-11-25T03:13:40.235Z,1.10
2022-11-25T03:16:06.861Z,1.25
2022-11-25T03:18:33.318Z,0.95
2022-11-25T03:20:59.624Z,1.40
2022-11-25T03:23:26.286Z,0.95
2022-11-25T03:25:52.611Z,1.08
2022-11-25T03:28:18.938Z,1.15
2022-11-25T03:30:45.438Z,0.98
2022-11-25T03:33:11.734Z,1.10
2022-11-25T03:35:38.118Z,1.05
2022-11-25T03:38:04.872Z,0.80
2022-11-25T03:40:31.173Z,0.98
2022-11-25T03:42:57.446Z,1.20
2022-11-25T03:45:23.757Z,0.70
2022-11-25T03:47:50.053Z,0.77
2022-11-25T03:50:16.686Z,0.93
2022-11-25T03:52:43.106Z,1.17
2022-11-25T03:55:09.812Z,1.10
2022-11-25T03:57:36.117Z,1.00
2022-11-25T04:00:02.767Z,1.75
2022-11-25T04:02:29.173Z,1.42
2022-11-25T04:04:55.565Z,1.55
2022-11-25T04:07:21.995Z,1.48
2022-11-25T04:09:48.322Z,1.50
2022-11-25T04:12:33.045Z,1.45
2022-11-25T04:14:59.329Z,1.52
2022-11-25T04:17:25.657Z,1.50
2022-11-25T04:19:52.050Z,1.52
2022-11-25T04:22:18.349Z,0.90
2022-11-25T04:24:44.706Z,1.33
2022-11-25T04:27:11.017Z,1.50
2022-11-25T04:29:37.323Z,1.17
2022-11-25T04:32:03.750Z,1.10
2022-11-25T04:34:30.053Z,1.40
2022-11-25T04:36:56.371Z,0.90
2022-11-25T04:39:22.675Z,0.98
2022-11-25T04:41:48.976Z,1.10
2022-11-25T04:44:15.261Z,1.00
2022-11-25T04:46:41.935Z,1.20
2022-11-25T04:49:08.342Z,1.10
2022-11-25T04:51:34.643Z,1.05
2022-11-25T04:54:01.107Z,0.98
2022-11-25T04:56:27.404Z,0.80
2022-11-25T04:59:29.186Z,0.93
2022-11-25T05:01:55.486Z,1.02
2022-11-25T05:04:21.818Z,0.98
2022-11-25T05:06:51.499Z,1.77
2022-11-25T05:09:18.142Z,1.08
2022-11-25T05:11:44.450Z,0.82
2022-11-25T05:14:10.775Z,0.95
2022-11-25T05:16:37.114Z,0.95
2022-11-25T05:19:03.489Z,1.05
2022-11-25T05:21:29.830Z,1.42
2022-11-25T05:23:56.335Z,1.20
2022-11-25T05:26:22.729Z,1.40
2022-11-25T05:28:49.036Z,1.27
2022-11-25T05:31:15.403Z,0.77
2022-11-25T05:33:41.780Z,1.05
2022-11-25T05:36:08.207Z,1.30
2022-11-25T05:38:34.513Z,1.08
2022-11-25T05:41:05.573Z,0.75
2022-11-25T05:43:33.806Z,0.70
2022-11-25T05:46:03.838Z,0.85
2022-11-25T05:48:30.193Z,1.27
2022-11-25T05:50:59.514Z,1.02
2022-11-25T05:53:25.794Z,0.85
2022-11-25T05:55:56.421Z,1.00
2022-11-25T05:58:23.339Z,1.05
2022-11-25T06:00:49.753Z,1.23
2022-11-25T06:03:16.232Z,0.90
2022-11-25T06:05:42.981Z,1.00
2022-11-25T06:08:09.766Z,0.90
2022-11-25T06:10:38.562Z,1.30
2022-11-25T06:13:04.858Z,1.15
2022-11-25T06:15:31.138Z,1.02
2022-11-25T06:17:57.484Z,1.15
2022-11-25T06:20:23.798Z,1.20
2022-11-25T06:22:50.513Z,1.00
2022-11-25T06:25:16.889Z,1.48
2022-11-25T06:28:11.432Z,1.20
2022-11-25T06:35:22.103Z,0.90
2022-11-25T06:37:49.579Z,1.40
2022-11-25T06:40:15.938Z,1.35
2022-11-25T06:42:43.492Z,1.20
2022-11-25T06:45:10.054Z,1.30
2022-11-25T06:47:36.386Z,1.10
2022-11-25T06:50:03.085Z,1.15
2022-11-25T06:52:32.580Z,1.02
2022-11-25T06:54:58.887Z,1.05
2022-11-25T06:57:25.210Z,1.17
2022-11-25T06:59:51.575Z,1.75
2022-11-25T07:02:17.942Z,1.35
2022-11-25T07:04:44.674Z,1.35
2022-11-25T07:07:11.055Z,1.10
2022-11-25T07:09:37.502Z,1.10
2022-11-25T07:12:05.722Z,1.30
2022-11-25T07:14:32.022Z,1.50
2022-11-25T07:16:58.323Z,0.95
2022-11-25T07:19:24.707Z,1.83
2022-11-25T07:21:51.069Z,0.70
2022-11-25T07:24:17.730Z,0.93
2022-11-25T07:26:44.312Z,1.52
2022-11-25T07:31:58.429Z,0.82
2022-11-25T07:34:24.714Z,0.77
2022-11-25T07:36:51.117Z,0.75
2022-11-25T07:39:21.681Z,0.85
2022-11-25T07:41:52.127Z,0.63
2022-11-25T07:44:18.661Z,0.50
2022-11-25T07:46:47.366Z,1.15
2022-11-25T07:49:15.754Z,0.90
2022-11-25T07:51:43.537Z,0.70
2022-11-25T07:54:11.778Z,0.82
2022-11-25T07:56:39.370Z,0.60
2022-11-25T07:59:06.630Z,0.90
2022-11-25T08:01:32.967Z,0.80
2022-11-25T08:03:59.349Z,0.85
2022-11-25T08:06:26.817Z,0.82
2022-11-25T08:08:55.419Z,1.00
2022-11-25T08:11:22.882Z,0.98
2022-11-25T08:13:49.547Z,0.98
2022-11-25T08:16:20.008Z,0.60
2022-11-25T08:18:46.588Z,0.80
2022-11-25T08:21:14.722Z,0.80
2022-11-25T08:23:42.924Z,0.90
2022-11-25T08:26:13.924Z,0.75
2022-11-25T08:28:41.373Z,1.00
2022-11-25T08:31:09.145Z,1.35
2022-11-25T08:33:35.479Z,0.85
2022-11-25T08:36:01.815Z,0.93
2022-11-25T08:38:28.773Z,1.10
2022-11-25T08:40:55.457Z,1.13
2022-11-25T08:43:26.357Z,1.20
2022-11-25T08:45:55.573Z,1.10
2022-11-25T08:48:21.931Z,0.88
2022-11-25T08:50:50.496Z,0.88
2022-11-25T08:53:17.370Z,0.93
2022-11-25T08:55:43.778Z,1.15
2022-11-25T08:58:11.303Z,0.90
2022-11-25T09:00:38.117Z,1.10
2022-11-25T09:03:04.665Z,1.00
2022-11-25T09:05:35.871Z,1.27
2022-11-25T09:08:03.558Z,0.80
2022-11-25T09:10:30.163Z,1.10
2022-11-25T09:12:56.835Z,1.13
2022-11-25T09:15:23.244Z,0.88
2022-11-25T09:17:49.700Z,1.10
2022-11-25T09:20:16.010Z,1.17
2022-11-25T09:22:42.375Z,1.00
2022-11-25T09:25:08.760Z,1.00
2022-11-25T09:27:35.072Z,0.93
2022-11-25T09:30:01.349Z,1.23
2022-11-25T09:32:27.632Z,1.42
2022-11-25T09:34:53.964Z,1.23
2022-11-25T09:37:20.238Z,1.30
2022-11-25T09:39:46.526Z,1.83
2022-11-25T09:42:43.546Z,1.30
2022-11-25T09:45:28.502Z,0.95
2022-11-25T09:48:07.201Z,1.10
2022-11-25T09:50:45.611Z,1.65
2022-11-25T09:53:25.630Z,1.70
2022-11-25T09:55:55.941Z,1.58
2022-11-25T09:58:34.941Z,1.15
2022-11-25T10:01:04.019Z,1.63
2022-11-25T10:03:37.649Z,1.65
2022-11-25T10:06:27.496Z,1.42
2022-11-25T10:08:56.189Z,1.70
2022-11-25T10:11:25.232Z,1.70
2022-11-25T10:13:57.886Z,1.42
2022-11-25T10:16:31.259Z,1.50
2022-11-25T10:19:17.859Z,1.48
2022-11-25T10:21:46.277Z,1.52
2022-11-25T10:24:14.582Z,1.73
2022-11-25T10:26:42.807Z,1.02
2022-11-25T10:29:29.199Z,1.75
2022-11-25T10:31:58.254Z,1.88
2022-11-25T10:34:42.098Z,2.25
2022-11-25T10:37:13.691Z,2.28
2022-11-25T10:39:40.364Z,1.85
2022-11-25T10:42:12.647Z,2.03
2022-11-25T10:44:40.623Z,2.20
2022-11-25T10:47:15.123Z,2.38
2022-11-25T10:49:50.325Z,1.77
2022-11-25T10:52:20.079Z,1.77
2022-11-25T10:54:55.548Z,3.35
2022-11-25T10:57:26.535Z,1.90
2022-11-25T10:59:57.885Z,2.40
2022-11-25T11:02:25.839Z,2.38
2022-11-25T11:05:11.071Z,1.83
2022-11-25T11:07:41.460Z,2.00
2022-11-25T11:10:13.669Z,2.60
2022-11-25T11:12:50.713Z,2.15
2022-11-25T11:15:23.154Z,2.33
2022-11-25T11:17:49.896Z,2.70
2022-11-25T11:20:21.331Z,2.00
2022-11-25T11:23:09.104Z,3.10
2022-11-25T11:25:37.339Z,2.97
2022-11-25T11:28:04.291Z,3.42
2022-11-25T11:30:31.842Z,2.33
2022-11-25T11:33:00.337Z,2.20
2022-11-25T11:35:49.438Z,2.75
2022-11-25T11:38:18.538Z,2.35
2022-11-25T11:40:47.056Z,2.35
2022-11-25T11:43:22.194Z,1.98
2022-11-25T11:46:01.282Z,1.90
2022-11-25T11:48:33.330Z,2.90
2022-11-25T11:51:11.933Z,2.47
2022-11-25T11:53:54.996Z,3.08
2022-11-25T11:56:36.543Z,2.30
2022-11-25T11:59:11.851Z,2.55
2022-11-25T12:01:47.363Z,2.05
2022-11-25T12:04:26.445Z,1.13
2022-11-25T12:07:00.034Z,2.10
2022-11-25T12:09:28.469Z,2.05
2022-11-25T12:11:59.014Z,2.33
2022-11-25T12:14:43.927Z,1.52
2022-11-25T12:17:30.512Z,2.15
2022-11-25T12:19:58.530Z,1.40
2022-11-25T12:22:27.789Z,1.48
2022-11-25T12:24:57.082Z,2.35
2022-11-25T12:27:26.470Z,1.80
2022-11-25T12:29:57.580Z,2.05
2022-11-25T12:32:44.084Z,2.80
2022-11-25T12:35:10.403Z,2.72
2022-11-25T12:37:39.762Z,2.22
2022-11-25T12:40:11.131Z,1.70
2022-11-25T12:42:39.604Z,2.50
2022-11-25T12:45:09.907Z,2.75
2022-11-25T12:47:36.289Z,2.38
2022-11-25T12:50:03.090Z,2.38
2022-11-25T12:52:48.526Z,2.45
2022-11-25T12:55:24.715Z,2.73
2022-11-25T12:58:11.622Z,1.95
2022-11-25T13:01:04.132Z,2.08
2022-11-25T13:04:03.134Z,1.98
2022-11-25T13:06:33.563Z,2.22
2022-11-25T13:09:18.914Z,1.83
2022-11-25T13:11:51.486Z,1.70
2022-11-25T13:14:37.903Z,1.45
2022-11-25T13:17:09.284Z,1.20
2022-11-25T13:19:37.248Z,1.38
2022-11-25T13:22:06.232Z,1.42
2022-11-25T13:24:33.709Z,1.20
2022-11-25T13:27:01.398Z,1.90
2022-11-25T13:29:28.206Z,1.20
2022-11-25T13:31:59.007Z,1.60
2022-11-25T13:34:32.866Z,2.17
2022-11-25T13:37:00.414Z,1.60
2022-11-25T13:39:37.370Z,1.60
2022-11-25T13:42:24.587Z,1.33
2022-11-25T13:44:54.885Z,1.85
2022-11-25T13:47:24.317Z,2.03
2022-11-25T13:49:52.637Z,1.55
2022-11-25T13:52:18.923Z,1.95
2022-11-25T13:54:49.474Z,2.08
2022-11-25T13:57:23.013Z,1.42
2022-11-25T13:59:50.917Z,1.67
2022-11-25T14:02:29.205Z,1.48
2022-11-25T14:04:55.580Z,1.95
2022-11-25T14:07:30.376Z,1.92
2022-11-25T14:09:56.860Z,1.37
2022-11-25T14:12:23.475Z,1.40
2022-11-25T14:15:02.179Z,1.75
2022-11-25T14:17:34.073Z,1.52
2022-11-25T14:20:19.154Z,1.58
2022-11-25T14:23:00.816Z,1.20
2022-11-25T14:25:30.135Z,1.52
2022-11-25T14:28:10.206Z,1.63
2022-11-25T14:30:46.629Z,1.20
2022-11-25T14:33:17.318Z,1.33
2022-11-25T14:35:46.238Z,1.48
2022-11-25T14:38:31.118Z,1.58
2022-11-25T14:41:03.858Z,1.90
2022-11-25T14:43:30.906Z,1.58
2022-11-25T14:46:17.941Z,1.52
2022-11-25T14:48:44.366Z,1.88
2022-11-25T14:51:11.678Z,1.77
2022-11-25T14:53:46.050Z,1.60
2022-11-25T14:56:15.144Z,2.00
2022-11-25T14:58:42.099Z,1.60
2022-11-25T15:01:17.289Z,1.63
2022-11-25T15:03:46.418Z,1.20
2022-11-25T15:06:13.840Z,1.13
2022-11-25T15:08:41.240Z,1.67
2022-11-25T15:11:14.024Z,2.40
2022-11-25T15:13:53.676Z,2.05
2022-11-25T15:16:22.237Z,1.88
2022-11-25T15:18:53.270Z,1.45
2022-11-25T15:21:21.813Z,1.85
2022-11-25T15:23:48.571Z,1.30
2022-11-25T15:26:20.173Z,1.92
2022-11-25T15:28:46.611Z,1.35
2022-11-25T15:31:18.657Z,2.22
2022-11-25T15:33:45.486Z,2.10
2022-11-25T15:36:11.808Z,1.55
2022-11-25T15:38:41.477Z,2.33
2022-11-25T15:41:15.553Z,1.90
2022-11-25T15:43:45.012Z,1.83
2022-11-25T15:46:11.456Z,2.42
2022-11-25T15:48:46.005Z,2.30
2022-11-25T15:51:21.576Z,2.05
2022-11-25T15:53:52.351Z,2.28
2022-11-25T15:56:21.313Z,2.05
2022-11-25T15:58:47.601Z,2.25
2022-11-25T16:01:17.288Z,1.40
2022-11-25T16:03:44.458Z,2.35
2022-11-25T16:06:24.275Z,1.90
2022-11-25T16:08:57.540Z,1.60
2022-11-25T16:11:25.509Z,2.03
2022-11-25T16:13:56.198Z,2.05
2022-11-25T16:16:24.471Z,2.22
2022-11-25T16:19:11.590Z,2.40
2022-11-25T16:21:40.601Z,2.45
2022-11-25T16:24:06.901Z,1.95
2022-11-25T16:26:35.013Z,1.70
2022-11-25T16:29:02.274Z,2.30
2022-11-25T16:31:29.000Z,2.38
2022-11-25T16:34:08.586Z,2.75
2022-11-25T16:36:34.929Z,2.72
2022-11-25T16:39:01.206Z,2.05
2022-11-25T16:41:27.715Z,2.40
2022-11-25T16:43:57.184Z,2.67
2022-11-25T16:46:26.491Z,1.95
2022-11-25T16:48:52.844Z,2.28
2022-11-25T16:51:20.345Z,2.42
2022-11-25T16:53:47.200Z,2.55
2022-11-25T16:56:20.568Z,2.38
2022-11-25T16:58:46.851Z,1.63
2022-11-25T17:01:17.316Z,2.08
2022-11-25T17:03:43.797Z,2.10
2022-11-25T17:06:17.120Z,2.60
2022-11-25T17:08:46.789Z,2.00
2022-11-25T17:11:15.475Z,1.42
2022-11-25T17:13:43.227Z,1.88
2022-11-25T17:16:13.761Z,2.10
2022-11-25T17:18:40.650Z,2.10
2022-11-25T17:21:07.049Z,2.60
2022-11-25T17:23:33.351Z,1.80
2022-11-25T17:25:59.924Z,2.28
2022-11-25T17:28:26.263Z,2.42
2022-11-25T17:30:52.568Z,1.88
2022-11-25T17:33:20.118Z,2.25
2022-11-25T17:35:46.696Z,2.13
2022-11-25T17:38:18.980Z,2.22
2022-11-25T17:40:45.846Z,2.25
2022-11-25T17:43:16.300Z,2.88
2022-11-25T17:45:43.379Z,2.28
2022-11-25T17:48:11.085Z,2.88
2022-11-25T17:50:37.627Z,2.50
2022-11-25T17:53:04.296Z,2.47
2022-11-25T17:55:31.255Z,2.47
2022-11-25T17:57:57.801Z,2.67
2022-11-25T18:00:24.889Z,2.85
2022-11-25T18:02:51.334Z,2.78
2022-11-25T18:05:22.287Z,2.45
2022-11-25T18:07:48.724Z,2.03
2022-11-25T18:10:19.568Z,2.38
2022-11-25T18:12:47.025Z,2.65
2022-11-25T18:15:21.311Z,2.72
2022-11-25T18:17:47.697Z,2.70
2022-11-25T18:20:15.283Z,2.80
2022-11-25T18:22:45.518Z,2.63
2022-11-25T18:25:15.904Z,2.58
2022-11-25T18:27:42.849Z,2.15
2022-11-25T18:30:20.316Z,2.00
2022-11-25T18:32:47.212Z,2.95
2022-11-25T18:35:18.607Z,2.70
2022-11-25T18:37:45.030Z,2.38
2022-11-25T18:40:11.936Z,2.70
2022-11-25T18:42:38.476Z,2.20
2022-11-25T18:45:05.119Z,2.40
2022-11-25T18:47:31.402Z,3.60
2022-11-25T18:49:57.768Z,2.97
2022-11-25T18:52:24.626Z,3.00
2022-11-25T18:54:51.141Z,3.10
2022-11-25T18:57:17.551Z,4.15
2022-11-25T18:59:44.446Z,3.67
2022-11-25T19:02:15.946Z,4.07
2022-11-25T19:04:42.392Z,4.90
2022-11-25T19:07:08.732Z,4.50
2022-11-25T19:09:35.072Z,4.63
2022-11-25T19:12:01.706Z,4.90
2022-11-25T19:14:36.226Z,5.45
2022-11-25T19:17:04.169Z,5.32
2022-11-25T19:19:30.748Z,5.20
2022-11-25T19:21:58.454Z,4.65
2022-11-25T19:24:24.898Z,5.53
2022-11-25T19:26:53.210Z,5.22
2022-11-25T19:29:21.751Z,3.83
2022-11-25T19:31:49.565Z,5.68
2022-11-25T19:34:23.748Z,6.97
2022-11-25T19:36:50.063Z,7.18
2022-11-25T19:39:17.068Z,5.68
2022-11-25T19:41:43.448Z,5.38
2022-11-25T19:44:09.740Z,5.65
2022-11-25T19:47:07.071Z,5.60
2022-11-25T19:49:24.711Z,5.43
2022-11-25T19:51:51.140Z,5.22
2022-11-25T19:54:18.387Z,4.28
2022-11-25T19:56:45.429Z,4.60
2022-11-25T19:59:11.762Z,5.13
2022-11-25T20:01:40.103Z,4.88
2022-11-25T20:04:07.582Z,4.90
2022-11-25T20:06:33.979Z,4.28
2022-11-25T20:09:06.415Z,4.50
2022-11-25T20:11:36.477Z,4.50
2022-11-25T20:14:03.559Z,4.28
2022-11-25T20:16:33.269Z,4.60
2022-11-25T20:19:00.084Z,4.35
2022-11-25T20:21:37.865Z,3.88
2022-11-25T20:24:05.364Z,4.15
2022-11-25T20:26:34.142Z,4.03
2022-11-25T20:29:00.547Z,4.15
2022-11-25T20:31:30.726Z,3.70
2022-11-25T20:33:57.291Z,4.57
2022-11-25T20:36:28.930Z,4.43
2022-11-25T20:38:56.035Z,4.03
2022-11-25T20:41:27.508Z,4.15
2022-11-25T20:43:54.981Z,4.32
2022-11-25T20:46:26.963Z,3.75
2022-11-25T20:48:55.071Z,3.92
2022-11-25T20:51:22.684Z,4.55
2022-11-25T20:53:53.242Z,4.47
2022-11-25T20:56:24.051Z,3.88
2022-11-25T20:58:50.374Z,3.83
2022-11-25T21:01:18.895Z,4.30
2022-11-25T21:03:45.921Z,5.40
2022-11-25T21:06:19.967Z,4.35
2022-11-25T21:08:47.935Z,4.10
2022-11-25T21:11:14.620Z,4.65
2022-11-25T21:13:40.956Z,3.83
2022-11-25T21:16:07.374Z,3.78
2022-11-25T21:18:34.302Z,4.13
2022-11-25T21:21:00.693Z,4.40
2022-11-25T21:23:37.353Z,3.35
2022-11-25T21:26:20.266Z,3.90
2022-11-25T21:28:47.704Z,4.07
2022-11-25T21:31:19.289Z,4.32
2022-11-25T21:33:46.144Z,3.97
2022-11-25T21:36:17.613Z,4.43
2022-11-25T21:38:44.194Z,3.90
2022-11-25T21:41:10.803Z,3.92
2022-11-25T21:43:39.721Z,4.97
2022-11-25T21:46:09.735Z,4.22
2022-11-25T21:48:36.451Z,4.55
2022-11-25T21:51:03.026Z,3.83
2022-11-25T21:53:32.029Z,4.70
2022-11-25T21:56:01.598Z,4.47
2022-11-25T21:58:29.148Z,4.32
2022-11-25T22:00:57.478Z,4.13
2022-11-25T22:03:24.744Z,4.35
2022-11-25T22:05:51.220Z,3.65
2022-11-25T22:08:17.735Z,3.63
2022-11-25T22:10:45.910Z,3.58
2022-11-25T22:13:15.735Z,3.17
2022-11-25T22:15:42.056Z,3.25
2022-11-25T22:18:13.916Z,4.15
2022-11-25T22:20:41.076Z,3.20
2022-11-25T22:23:17.539Z,3.55
2022-11-25T22:25:44.127Z,3.50
2022-11-25T22:28:14.296Z,2.97
2022-11-25T22:30:41.977Z,3.47
2022-11-25T22:33:10.433Z,3.72
2022-11-25T22:35:36.715Z,3.35
2022-11-25T22:38:03.179Z,4.63
2022-11-25T22:40:29.499Z,5.18
2022-11-25T22:42:56.327Z,4.40
2022-11-25T22:45:33.072Z,4.70
2022-11-25T22:48:00.349Z,3.85
2022-11-25T22:50:28.170Z,4.30
2022-11-25T22:52:55.427Z,3.63
2022-11-25T22:55:21.802Z,3.47
2022-11-25T22:57:49.308Z,3.22
2022-11-25T23:00:17.989Z,3.78
2022-11-25T23:02:44.331Z,3.67
2022-11-25T23:05:21.214Z,3.38
2022-11-25T23:07:47.652Z,3.60
2022-11-25T23:10:15.376Z,2.97
2022-11-25T23:12:41.696Z,3.47
2022-11-25T23:15:12.040Z,3.42
2022-11-25T23:17:38.738Z,3.38
2022-11-25T23:20:14.070Z,3.78
2022-11-25T23:22:40.349Z,3.65
2022-11-25T23:25:12.217Z,3.28
2022-11-25T23:27:38.518Z,3.10
2022-11-25T23:30:05.594Z,3.97
2022-11-25T23:32:32.420Z,3.97
2022-11-25T23:34:58.926Z,3.50
2022-11-25T23:37:25.643Z,3.75
2022-11-25T23:39:53.159Z,5.22
2022-11-25T23:42:20.219Z,3.40
2022-11-25T23:44:46.541Z,3.75
2022-11-25T23:47:14.903Z,2.92
2022-11-25T23:49:44.411Z,4.13
2022-11-25T23:52:13.794Z,3.60
2022-11-25T23:54:42.571Z,2.90
2022-11-25T23:57:17.938Z,2.47
2022-11-25T23:59:44.565Z,2.95
